sensor_id;sensor_type;location;lat;lon;timestamp;pressure;altitude;pressure_sealevel;temperature;humidity
69247;BME280;56358;56.328;43.992;2023-04-23T00:00:47;100238.63;;;7.68;41.28
69247;BME280;56358;56.328;43.992;2023-04-23T00:02:51;100246.75;;;7.66;41.59
69247;BME280;56358;56.328;43.992;2023-04-23T00:04:53;100246.63;;;7.68;41.86
69247;BME280;56358;56.328;43.992;2023-04-23T00:06:57;100255.38;;;7.70;41.28
69247;BME280;56358;56.328;43.992;2023-04-23T00:08:59;100238.09;;;7.63;41.28
69247;BME280;56358;56.328;43.992;2023-04-23T00:11:01;100246.53;;;7.69;41.26
69247;BME280;56358;56.328;43.992;2023-04-23T00:13:02;100174.06;;;7.24;41.30
69247;BME280;56358;56.328;43.992;2023-04-23T00:15:04;100253.03;;;7.78;41.01
69247;BME280;56358;56.328;43.992;2023-04-23T00:17:06;100264.69;;;7.77;41.54
69247;BME280;56358;56.328;43.992;2023-04-23T00:19:07;100238.41;;;7.58;41.23
69247;BME280;56358;56.328;43.992;2023-04-23T00:21:08;100273.88;;;7.73;41.47
69247;BME280;56358;56.328;43.992;2023-04-23T00:23:09;100201.16;;;7.31;41.41
69247;BME280;56358;56.328;43.992;2023-04-23T00:25:09;100263.50;;;7.68;41.81
69247;BME280;56358;56.328;43.992;2023-04-23T00:27:11;100274.28;;;7.67;41.59
69247;BME280;56358;56.328;43.992;2023-04-23T00:29:12;100263.81;;;7.64;41.77
69247;BME280;56358;56.328;43.992;2023-04-23T00:31:12;100267.34;;;7.64;41.52
69247;BME280;56358;56.328;43.992;2023-04-23T00:33:13;100270.13;;;7.63;41.62
69247;BME280;56358;56.328;43.992;2023-04-23T00:35:14;100281.63;;;7.63;41.37
69247;BME280;56358;56.328;43.992;2023-04-23T00:37:15;100276.41;;;7.62;41.45
69247;BME280;56358;56.328;43.992;2023-04-23T00:39:16;100272.47;;;7.54;41.25
69247;BME280;56358;56.328;43.992;2023-04-23T00:41:17;100282.91;;;7.58;41.74
69247;BME280;56358;56.328;43.992;2023-04-23T00:43:19;100279.50;;;7.55;41.91
69247;BME280;56358;56.328;43.992;2023-04-23T00:45:20;100283.75;;;7.58;41.81
69247;BME280;56358;56.328;43.992;2023-04-23T00:47:21;100138.91;;;6.66;42.06
69247;BME280;56358;56.328;43.992;2023-04-23T00:49:22;100208.38;;;7.03;42.00
69247;BME280;56358;56.328;43.992;2023-04-23T00:51:24;100131.13;;;6.63;42.25
69247;BME280;56358;56.328;43.992;2023-04-23T00:53:25;100295.72;;;7.52;42.36
69247;BME280;56358;56.328;43.992;2023-04-23T00:55:26;100293.47;;;7.46;42.94
69247;BME280;56358;56.328;43.992;2023-04-23T00:57:27;100271.78;;;7.38;42.72
69247;BME280;56358;56.328;43.992;2023-04-23T00:59:29;100293.88;;;7.40;42.53
69247;BME280;56358;56.328;43.992;2023-04-23T01:01:31;100304.44;;;7.42;42.70
69247;BME280;56358;56.328;43.992;2023-04-23T01:03:33;100291.44;;;7.37;42.72
69247;BME280;56358;56.328;43.992;2023-04-23T01:05:35;100261.28;;;7.09;42.77
69247;BME280;56358;56.328;43.992;2023-04-23T01:07:36;100279.53;;;7.15;42.65
69247;BME280;56358;56.328;43.992;2023-04-23T01:09:37;100291.16;;;7.27;42.60
69247;BME280;56358;56.328;43.992;2023-04-23T01:11:41;100296.72;;;7.24;42.96
69247;BME280;56358;56.328;43.992;2023-04-23T01:13:42;100297.03;;;7.19;42.96
69247;BME280;56358;56.328;43.992;2023-04-23T01:15:44;100297.88;;;7.20;42.74
69247;BME280;56358;56.328;43.992;2023-04-23T01:17:45;100298.72;;;7.20;42.66
69247;BME280;56358;56.328;43.992;2023-04-23T01:19:46;100275.44;;;7.10;42.41
69247;BME280;56358;56.328;43.992;2023-04-23T01:21:48;100293.81;;;7.14;42.56
69247;BME280;56358;56.328;43.992;2023-04-23T01:23:49;100270.66;;;7.02;42.88
69247;BME280;56358;56.328;43.992;2023-04-23T01:25:50;100284.72;;;7.04;42.72
69247;BME280;56358;56.328;43.992;2023-04-23T01:27:51;100287.28;;;7.05;43.07
69247;BME280;56358;56.328;43.992;2023-04-23T01:29:52;100148.78;;;6.24;42.94
69247;BME280;56358;56.328;43.992;2023-04-23T01:31:53;100310.66;;;7.15;43.16
69247;BME280;56358;56.328;43.992;2023-04-23T01:33:55;100316.94;;;7.14;43.43
69247;BME280;56358;56.328;43.992;2023-04-23T01:35:57;100336.59;;;7.13;43.12
69247;BME280;56358;56.328;43.992;2023-04-23T01:37:58;100302.31;;;7.07;43.01
69247;BME280;56358;56.328;43.992;2023-04-23T01:40:00;100299.88;;;7.03;43.25
69247;BME280;56358;56.328;43.992;2023-04-23T01:42:00;100288.31;;;6.90;43.15
69247;BME280;56358;56.328;43.992;2023-04-23T01:44:02;100313.22;;;7.16;43.09
69247;BME280;56358;56.328;43.992;2023-04-23T01:46:03;100243.34;;;6.71;43.36
69247;BME280;56358;56.328;43.992;2023-04-23T01:48:04;100248.50;;;6.74;43.27
69247;BME280;56358;56.328;43.992;2023-04-23T01:50:05;100321.78;;;7.21;43.47
69247;BME280;56358;56.328;43.992;2023-04-23T01:52:06;100318.38;;;7.19;43.66
69247;BME280;56358;56.328;43.992;2023-04-23T01:54:07;100313.31;;;7.15;43.61
69247;BME280;56358;56.328;43.992;2023-04-23T01:56:08;100321.75;;;7.09;43.66
69247;BME280;56358;56.328;43.992;2023-04-23T01:58:10;100349.75;;;7.29;43.61
69247;BME280;56358;56.328;43.992;2023-04-23T02:00:11;100332.78;;;7.30;43.55
69247;BME280;56358;56.328;43.992;2023-04-23T02:02:14;100353.06;;;7.32;43.80
69247;BME280;56358;56.328;43.992;2023-04-23T02:04:16;100344.00;;;7.35;44.44
69247;BME280;56358;56.328;43.992;2023-04-23T02:06:17;100261.75;;;6.88;44.45
69247;BME280;56358;56.328;43.992;2023-04-23T02:08:18;100336.88;;;7.35;44.36
69247;BME280;56358;56.328;43.992;2023-04-23T02:10:18;100344.50;;;7.27;44.99
69247;BME280;56358;56.328;43.992;2023-04-23T02:12:20;100319.31;;;7.18;45.38
69247;BME280;56358;56.328;43.992;2023-04-23T02:14:21;100341.34;;;7.35;45.21
69247;BME280;56358;56.328;43.992;2023-04-23T02:16:21;100336.94;;;7.34;45.46
69247;BME280;56358;56.328;43.992;2023-04-23T02:18:23;100344.22;;;7.32;45.84
69247;BME280;56358;56.328;43.992;2023-04-23T02:20:24;100350.59;;;7.29;45.94
69247;BME280;56358;56.328;43.992;2023-04-23T02:22:26;100344.44;;;7.29;45.83
69247;BME280;56358;56.328;43.992;2023-04-23T02:24:28;100335.00;;;7.23;45.50
69247;BME280;56358;56.328;43.992;2023-04-23T02:26:29;100323.25;;;7.13;45.41
69247;BME280;56358;56.328;43.992;2023-04-23T02:28:29;100358.28;;;7.34;44.96
69247;BME280;56358;56.328;43.992;2023-04-23T02:30:35;100273.47;;;6.86;45.02
69247;BME280;56358;56.328;43.992;2023-04-23T02:32:36;100329.09;;;7.18;45.19
69247;BME280;56358;56.328;43.992;2023-04-23T02:34:38;100358.44;;;7.45;44.82
69247;BME280;56358;56.328;43.992;2023-04-23T02:36:38;100285.47;;;7.06;44.36
69247;BME280;56358;56.328;43.992;2023-04-23T02:38:39;100344.22;;;7.45;44.57
69247;BME280;56358;56.328;43.992;2023-04-23T02:40:41;100367.13;;;7.62;44.20
69247;BME280;56358;56.328;43.992;2023-04-23T02:42:43;100278.44;;;7.18;43.74
69247;BME280;56358;56.328;43.992;2023-04-23T02:44:43;100352.50;;;7.67;43.56
69247;BME280;56358;56.328;43.992;2023-04-23T02:46:44;100289.59;;;7.37;43.49
69247;BME280;56358;56.328;43.992;2023-04-23T02:48:45;100360.56;;;7.93;43.26
69247;BME280;56358;56.328;43.992;2023-04-23T02:50:46;100368.66;;;8.04;42.92
69247;BME280;56358;56.328;43.992;2023-04-23T02:52:47;100356.50;;;8.13;42.53
69247;BME280;56358;56.328;43.992;2023-04-23T02:54:49;100295.72;;;7.78;42.63
69247;BME280;56358;56.328;43.992;2023-04-23T02:56:49;100332.88;;;8.07;42.38
69247;BME280;56358;56.328;43.992;2023-04-23T02:58:50;100363.13;;;8.33;42.31
69247;BME280;56358;56.328;43.992;2023-04-23T03:00:51;100355.00;;;8.35;42.09
69247;BME280;56358;56.328;43.992;2023-04-23T03:02:52;100269.91;;;7.92;41.82
69247;BME280;56358;56.328;43.992;2023-04-23T03:04:53;100363.22;;;8.58;42.02
69247;BME280;56358;56.328;43.992;2023-04-23T03:06:53;100342.41;;;8.50;42.04
69247;BME280;56358;56.328;43.992;2023-04-23T03:08:55;100343.56;;;8.59;41.81
69247;BME280;56358;56.328;43.992;2023-04-23T03:10:55;100371.63;;;8.77;42.12
69247;BME280;56358;56.328;43.992;2023-04-23T03:12:56;100317.28;;;8.52;42.03
69247;BME280;56358;56.328;43.992;2023-04-23T03:14:57;100381.44;;;8.89;42.00
69247;BME280;56358;56.328;43.992;2023-04-23T03:16:57;100291.84;;;8.47;41.96
69247;BME280;56358;56.328;43.992;2023-04-23T03:18:58;100382.56;;;8.98;41.92
69247;BME280;56358;56.328;43.992;2023-04-23T03:20:59;100372.84;;;8.97;42.10
69247;BME280;56358;56.328;43.992;2023-04-23T03:23:00;100354.72;;;8.89;42.02
69247;BME280;56358;56.328;43.992;2023-04-23T03:25:01;100326.63;;;8.71;41.88
69247;BME280;56358;56.328;43.992;2023-04-23T03:27:08;100374.84;;;9.06;41.89
69247;BME280;56358;56.328;43.992;2023-04-23T03:29:08;100310.31;;;8.63;41.68
69247;BME280;56358;56.328;43.992;2023-04-23T03:31:10;100386.94;;;9.12;41.85
69247;BME280;56358;56.328;43.992;2023-04-23T03:33:10;100311.16;;;8.63;42.43
69247;BME280;56358;56.328;43.992;2023-04-23T03:35:11;100395.16;;;9.09;42.43
69247;BME280;56358;56.328;43.992;2023-04-23T03:37:12;100404.13;;;9.08;42.80
69247;BME280;56358;56.328;43.992;2023-04-23T03:39:13;100410.47;;;9.07;42.95
69247;BME280;56358;56.328;43.992;2023-04-23T03:41:14;100408.88;;;9.04;43.27
69247;BME280;56358;56.328;43.992;2023-04-23T03:43:15;100404.94;;;8.97;43.60
69247;BME280;56358;56.328;43.992;2023-04-23T03:45:16;100404.88;;;8.86;43.86
69247;BME280;56358;56.328;43.992;2023-04-23T03:47:16;100423.44;;;9.00;44.45
69247;BME280;56358;56.328;43.992;2023-04-23T03:49:17;100405.19;;;8.81;44.29
69247;BME280;56358;56.328;43.992;2023-04-23T03:51:18;100441.00;;;8.92;44.67
69247;BME280;56358;56.328;43.992;2023-04-23T03:53:19;100421.03;;;8.84;44.82
69247;BME280;56358;56.328;43.992;2023-04-23T03:55:19;100413.94;;;8.83;44.61
69247;BME280;56358;56.328;43.992;2023-04-23T03:57:21;100427.31;;;8.96;44.45
69247;BME280;56358;56.328;43.992;2023-04-23T03:59:22;100412.66;;;8.89;44.09
69247;BME280;56358;56.328;43.992;2023-04-23T04:01:23;100432.28;;;9.14;43.29
69247;BME280;56358;56.328;43.992;2023-04-23T04:03:23;100441.84;;;9.29;42.49
69247;BME280;56358;56.328;43.992;2023-04-23T04:05:25;100361.59;;;9.05;41.70
69247;BME280;56358;56.328;43.992;2023-04-23T04:07:25;100406.56;;;9.48;41.42
69247;BME280;56358;56.328;43.992;2023-04-23T04:09:28;100428.97;;;9.83;41.11
69247;BME280;56358;56.328;43.992;2023-04-23T04:11:29;100366.09;;;9.64;41.08
69247;BME280;56358;56.328;43.992;2023-04-23T04:13:30;100386.25;;;9.81;40.06
69247;BME280;56358;56.328;43.992;2023-04-23T04:15:30;100424.69;;;10.27;39.95
69247;BME280;56358;56.328;43.992;2023-04-23T04:17:32;100439.53;;;10.55;39.24
69247;BME280;56358;56.328;43.992;2023-04-23T04:19:33;100440.03;;;10.72;39.01
69247;BME280;56358;56.328;43.992;2023-04-23T04:21:34;100446.00;;;10.87;38.40
69247;BME280;56358;56.328;43.992;2023-04-23T04:23:35;100380.53;;;10.67;37.51
69247;BME280;56358;56.328;43.992;2023-04-23T04:25:36;100450.00;;;11.15;36.85
69247;BME280;56358;56.328;43.992;2023-04-23T04:27:39;100445.84;;;11.22;36.72
69247;BME280;56358;56.328;43.992;2023-04-23T04:29:41;100435.34;;;11.31;36.59
69247;BME280;56358;56.328;43.992;2023-04-23T04:31:42;100458.69;;;11.51;36.00
69247;BME280;56358;56.328;43.992;2023-04-23T04:33:42;100454.16;;;11.63;35.98
69247;BME280;56358;56.328;43.992;2023-04-23T04:35:46;100325.53;;;10.95;35.61
69247;BME280;56358;56.328;43.992;2023-04-23T04:37:48;100443.13;;;11.78;35.36
69247;BME280;56358;56.328;43.992;2023-04-23T04:39:49;100458.19;;;11.90;35.42
69247;BME280;56358;56.328;43.992;2023-04-23T04:41:50;100457.47;;;11.99;35.25
69247;BME280;56358;56.328;43.992;2023-04-23T04:43:51;100450.44;;;12.08;35.08
69247;BME280;56358;56.328;43.992;2023-04-23T04:45:52;100458.59;;;12.18;34.92
69247;BME280;56358;56.328;43.992;2023-04-23T04:47:53;100467.34;;;12.20;34.57
69247;BME280;56358;56.328;43.992;2023-04-23T04:49:54;100455.22;;;12.26;34.57
69247;BME280;56358;56.328;43.992;2023-04-23T04:51:56;100455.31;;;12.35;34.59
69247;BME280;56358;56.328;43.992;2023-04-23T04:53:57;100461.47;;;12.47;34.39
69247;BME280;56358;56.328;43.992;2023-04-23T04:55:58;100401.03;;;12.20;34.44
69247;BME280;56358;56.328;43.992;2023-04-23T04:57:58;100457.16;;;12.66;34.02
69247;BME280;56358;56.328;43.992;2023-04-23T05:00:05;100462.59;;;12.76;33.84
69247;BME280;56358;56.328;43.992;2023-04-23T05:02:18;100465.75;;;12.81;33.74
69247;BME280;56358;56.328;43.992;2023-04-23T05:04:20;100471.13;;;12.81;33.31
69247;BME280;56358;56.328;43.992;2023-04-23T05:06:21;100472.56;;;12.85;33.39
69247;BME280;56358;56.328;43.992;2023-04-23T05:08:22;100479.53;;;12.87;33.57
69247;BME280;56358;56.328;43.992;2023-04-23T05:10:22;100478.72;;;12.97;33.65
69247;BME280;56358;56.328;43.992;2023-04-23T05:12:23;100472.91;;;13.01;33.92
69247;BME280;56358;56.328;43.992;2023-04-23T05:14:24;100474.19;;;13.07;33.65
69247;BME280;56358;56.328;43.992;2023-04-23T05:16:26;100458.31;;;13.04;33.54
69247;BME280;56358;56.328;43.992;2023-04-23T05:18:26;100347.63;;;12.37;33.53
69247;BME280;56358;56.328;43.992;2023-04-23T05:20:27;100475.84;;;13.29;33.59
69247;BME280;56358;56.328;43.992;2023-04-23T05:22:28;100476.88;;;13.38;33.91
69247;BME280;56358;56.328;43.992;2023-04-23T05:24:30;100481.28;;;13.49;33.79
69247;BME280;56358;56.328;43.992;2023-04-23T05:26:30;100494.06;;;13.56;33.53
69247;BME280;56358;56.328;43.992;2023-04-23T05:28:31;100472.25;;;13.60;33.32
69247;BME280;56358;56.328;43.992;2023-04-23T05:30:32;100474.66;;;13.72;33.26
69247;BME280;56358;56.328;43.992;2023-04-23T05:32:33;100426.00;;;13.45;33.08
69247;BME280;56358;56.328;43.992;2023-04-23T05:34:34;100473.53;;;13.75;33.11
69247;BME280;56358;56.328;43.992;2023-04-23T05:36:35;100355.81;;;13.17;32.73
69247;BME280;56358;56.328;43.992;2023-04-23T05:38:37;100486.59;;;13.99;32.86
69247;BME280;56358;56.328;43.992;2023-04-23T05:40:38;100495.84;;;14.06;32.73
69247;BME280;56358;56.328;43.992;2023-04-23T05:42:38;100495.25;;;14.13;32.19
69247;BME280;56358;56.328;43.992;2023-04-23T05:44:39;100493.69;;;14.20;32.77
69247;BME280;56358;56.328;43.992;2023-04-23T05:46:43;100488.28;;;14.30;32.45
69247;BME280;56358;56.328;43.992;2023-04-23T05:48:43;100448.72;;;14.11;32.39
69247;BME280;56358;56.328;43.992;2023-04-23T05:50:44;100491.25;;;14.46;32.39
69247;BME280;56358;56.328;43.992;2023-04-23T05:52:45;100490.94;;;14.59;32.05
69247;BME280;56358;56.328;43.992;2023-04-23T05:54:46;100483.38;;;14.63;31.97
69247;BME280;56358;56.328;43.992;2023-04-23T05:56:46;100485.53;;;14.69;31.79
69247;BME280;56358;56.328;43.992;2023-04-23T05:58:47;100495.16;;;14.81;31.46
69247;BME280;56358;56.328;43.992;2023-04-23T06:00:47;100496.97;;;14.90;31.28
69247;BME280;56358;56.328;43.992;2023-04-23T06:02:49;100475.13;;;14.84;31.21
69247;BME280;56358;56.328;43.992;2023-04-23T06:04:50;100502.00;;;15.13;30.75
69247;BME280;56358;56.328;43.992;2023-04-23T06:06:51;100501.41;;;15.19;30.50
69247;BME280;56358;56.328;43.992;2023-04-23T06:08:51;100506.09;;;15.27;30.69
69247;BME280;56358;56.328;43.992;2023-04-23T06:10:52;100456.34;;;14.92;30.48
69247;BME280;56358;56.328;43.992;2023-04-23T06:12:55;100506.09;;;15.27;29.89
69247;BME280;56358;56.328;43.992;2023-04-23T06:14:56;100519.97;;;15.32;29.96
69247;BME280;56358;56.328;43.992;2023-04-23T06:16:56;100514.13;;;15.37;29.85
69247;BME280;56358;56.328;43.992;2023-04-23T06:18:57;100522.06;;;15.38;30.02
69247;BME280;56358;56.328;43.992;2023-04-23T06:20:58;100521.19;;;15.48;29.72
69247;BME280;56358;56.328;43.992;2023-04-23T06:23:03;100522.25;;;15.55;29.69
69247;BME280;56358;56.328;43.992;2023-04-23T06:25:04;100460.75;;;15.21;29.07
69247;BME280;56358;56.328;43.992;2023-04-23T06:27:05;100512.09;;;15.67;29.16
69247;BME280;56358;56.328;43.992;2023-04-23T06:29:06;100516.28;;;15.79;29.29
69247;BME280;56358;56.328;43.992;2023-04-23T06:31:07;100425.00;;;15.37;29.05
69247;BME280;56358;56.328;43.992;2023-04-23T06:33:08;100523.28;;;16.00;29.55
69247;BME280;56358;56.328;43.992;2023-04-23T06:35:09;100529.38;;;16.02;30.34
69247;BME280;56358;56.328;43.992;2023-04-23T06:37:09;100522.75;;;15.96;29.48
69247;BME280;56358;56.328;43.992;2023-04-23T06:39:10;100533.00;;;15.92;29.70
69247;BME280;56358;56.328;43.992;2023-04-23T06:41:11;100525.69;;;15.85;29.49
69247;BME280;56358;56.328;43.992;2023-04-23T06:43:12;100517.31;;;15.78;29.33
69247;BME280;56358;56.328;43.992;2023-04-23T06:45:14;100537.53;;;15.74;29.09
69247;BME280;56358;56.328;43.992;2023-04-23T06:47:15;100534.81;;;15.74;29.56
69247;BME280;56358;56.328;43.992;2023-04-23T06:49:16;100535.50;;;15.76;29.43
69247;BME280;56358;56.328;43.992;2023-04-23T06:51:17;100414.94;;;15.01;29.23
69247;BME280;56358;56.328;43.992;2023-04-23T06:53:18;100536.66;;;15.83;29.25
69247;BME280;56358;56.328;43.992;2023-04-23T06:55:19;100475.94;;;15.50;29.26
69247;BME280;56358;56.328;43.992;2023-04-23T06:57:21;100532.41;;;15.99;29.38
69247;BME280;56358;56.328;43.992;2023-04-23T06:59:22;100524.53;;;16.05;29.30
69247;BME280;56358;56.328;43.992;2023-04-23T07:01:23;100528.16;;;16.14;29.55
69247;BME280;56358;56.328;43.992;2023-04-23T07:03:23;100534.97;;;16.18;28.86
69247;BME280;56358;56.328;43.992;2023-04-23T07:05:24;100414.50;;;15.52;28.95
69247;BME280;56358;56.328;43.992;2023-04-23T07:07:25;100528.31;;;16.31;29.17
69247;BME280;56358;56.328;43.992;2023-04-23T07:09:27;100519.47;;;16.29;29.14
69247;BME280;56358;56.328;43.992;2023-04-23T07:11:28;100516.06;;;16.45;29.25
69247;BME280;56358;56.328;43.992;2023-04-23T07:13:31;100535.16;;;16.61;28.74
69247;BME280;56358;56.328;43.992;2023-04-23T07:15:31;100526.22;;;16.69;28.95
69247;BME280;56358;56.328;43.992;2023-04-23T07:17:32;100524.09;;;16.81;28.55
69247;BME280;56358;56.328;43.992;2023-04-23T07:19:33;100461.78;;;16.46;28.42
69247;BME280;56358;56.328;43.992;2023-04-23T07:21:34;100533.16;;;16.89;29.03
69247;BME280;56358;56.328;43.992;2023-04-23T07:23:35;100556.97;;;16.86;28.50
69247;BME280;56358;56.328;43.992;2023-04-23T07:25:35;100532.59;;;16.86;28.12
69247;BME280;56358;56.328;43.992;2023-04-23T07:27:37;100533.31;;;16.88;27.58
69247;BME280;56358;56.328;43.992;2023-04-23T07:29:38;100532.22;;;16.99;27.33
69247;BME280;56358;56.328;43.992;2023-04-23T07:31:38;100529.00;;;17.03;27.50
69247;BME280;56358;56.328;43.992;2023-04-23T07:33:41;100525.38;;;17.21;27.48
69247;BME280;56358;56.328;43.992;2023-04-23T07:35:41;100536.03;;;17.22;28.03
69247;BME280;56358;56.328;43.992;2023-04-23T07:37:42;100545.34;;;17.20;28.04
69247;BME280;56358;56.328;43.992;2023-04-23T07:39:43;100539.13;;;17.28;27.47
69247;BME280;56358;56.328;43.992;2023-04-23T07:41:43;100534.41;;;17.30;27.55
69247;BME280;56358;56.328;43.992;2023-04-23T07:43:44;100545.44;;;17.36;27.65
69247;BME280;56358;56.328;43.992;2023-04-23T07:45:45;100543.22;;;17.40;27.31
69247;BME280;56358;56.328;43.992;2023-04-23T07:47:48;100522.63;;;17.13;27.14
69247;BME280;56358;56.328;43.992;2023-04-23T07:49:49;100518.34;;;17.02;27.24
69247;BME280;56358;56.328;43.992;2023-04-23T07:51:50;100552.25;;;17.14;27.63
69247;BME280;56358;56.328;43.992;2023-04-23T07:53:51;100552.91;;;17.08;27.52
69247;BME280;56358;56.328;43.992;2023-04-23T07:55:54;100548.88;;;17.12;27.83
69247;BME280;56358;56.328;43.992;2023-04-23T07:57:57;100542.50;;;17.21;27.83
69247;BME280;56358;56.328;43.992;2023-04-23T07:59:58;100553.38;;;17.30;27.06
69247;BME280;56358;56.328;43.992;2023-04-23T08:01:58;100546.63;;;17.34;27.53
69247;BME280;56358;56.328;43.992;2023-04-23T08:03:59;100532.34;;;17.32;27.22
69247;BME280;56358;56.328;43.992;2023-04-23T08:06:00;100539.41;;;17.51;27.87
69247;BME280;56358;56.328;43.992;2023-04-23T08:08:01;100506.34;;;17.39;27.25
69247;BME280;56358;56.328;43.992;2023-04-23T08:10:02;100544.00;;;17.58;27.32
69247;BME280;56358;56.328;43.992;2023-04-23T08:12:06;100538.38;;;17.52;26.57
69247;BME280;56358;56.328;43.992;2023-04-23T08:14:07;100542.31;;;17.57;27.11
69247;BME280;56358;56.328;43.992;2023-04-23T08:16:07;100539.25;;;17.61;26.60
69247;BME280;56358;56.328;43.992;2023-04-23T08:18:08;100540.63;;;17.65;27.02
69247;BME280;56358;56.328;43.992;2023-04-23T08:20:09;100529.09;;;17.63;26.25
69247;BME280;56358;56.328;43.992;2023-04-23T08:22:10;100531.69;;;17.81;26.44
69247;BME280;56358;56.328;43.992;2023-04-23T08:24:12;100542.38;;;17.90;26.01
69247;BME280;56358;56.328;43.992;2023-04-23T08:26:13;100534.13;;;17.92;26.18
69247;BME280;56358;56.328;43.992;2023-04-23T08:28:13;100529.84;;;17.89;26.00
69247;BME280;56358;56.328;43.992;2023-04-23T08:30:15;100544.78;;;17.93;26.68
69247;BME280;56358;56.328;43.992;2023-04-23T08:32:16;100545.50;;;17.96;26.65
69247;BME280;56358;56.328;43.992;2023-04-23T08:34:16;100531.28;;;18.02;26.73
69247;BME280;56358;56.328;43.992;2023-04-23T08:36:17;100532.97;;;18.11;26.46
69247;BME280;56358;56.328;43.992;2023-04-23T08:38:18;100526.69;;;18.19;26.20
69247;BME280;56358;56.328;43.992;2023-04-23T08:40:18;100521.63;;;18.24;26.33
69247;BME280;56358;56.328;43.992;2023-04-23T08:44:35;100524.84;;;18.36;26.46
69247;BME280;56358;56.328;43.992;2023-04-23T08:46:41;100513.63;;;18.31;26.38
69247;BME280;56358;56.328;43.992;2023-04-23T08:48:43;100492.44;;;18.34;26.58
69247;BME280;56358;56.328;43.992;2023-04-23T08:50:45;100503.47;;;18.49;26.05
69247;BME280;56358;56.328;43.992;2023-04-23T08:52:52;100524.34;;;18.57;25.67
69247;BME280;56358;56.328;43.992;2023-04-23T08:54:53;100520.25;;;18.69;25.59
69247;BME280;56358;56.328;43.992;2023-04-23T08:56:59;100501.91;;;18.63;25.33
69247;BME280;56358;56.328;43.992;2023-04-23T08:59:01;100494.28;;;18.67;25.16
69247;BME280;56358;56.328;43.992;2023-04-23T09:01:03;100470.38;;;18.46;25.22
69247;BME280;56358;56.328;43.992;2023-04-23T09:03:04;100498.50;;;18.77;25.23
69247;BME280;56358;56.328;43.992;2023-04-23T09:05:06;100520.19;;;18.86;24.89
69247;BME280;56358;56.328;43.992;2023-04-23T09:07:06;100512.94;;;18.95;24.71
69247;BME280;56358;56.328;43.992;2023-04-23T09:09:16;100514.03;;;19.17;24.79
69247;BME280;56358;56.328;43.992;2023-04-23T09:11:18;100508.91;;;19.22;24.72
69247;BME280;56358;56.328;43.992;2023-04-23T09:13:20;100523.25;;;19.47;24.52
69247;BME280;56358;56.328;43.992;2023-04-23T09:15:22;100518.19;;;19.75;24.15
69247;BME280;56358;56.328;43.992;2023-04-23T09:17:27;100508.03;;;20.01;23.93
69247;BME280;56358;56.328;43.992;2023-04-23T09:19:28;100439.34;;;19.99;23.44
69247;BME280;56358;56.328;43.992;2023-04-23T09:21:30;100482.38;;;20.41;24.02
69247;BME280;56358;56.328;43.992;2023-04-23T09:23:31;100505.66;;;20.97;22.86
69247;BME280;56358;56.328;43.992;2023-04-23T09:25:32;100477.25;;;21.21;22.53
69247;BME280;56358;56.328;43.992;2023-04-23T09:27:33;100485.47;;;21.73;22.66
69247;BME280;56358;56.328;43.992;2023-04-23T09:29:34;100501.66;;;22.18;22.23
69247;BME280;56358;56.328;43.992;2023-04-23T09:31:35;100500.22;;;22.65;21.07
69247;BME280;56358;56.328;43.992;2023-04-23T09:33:36;100475.72;;;22.79;20.50
69247;BME280;56358;56.328;43.992;2023-04-23T09:35:36;100506.38;;;23.09;21.23
69247;BME280;56358;56.328;43.992;2023-04-23T09:37:44;100490.97;;;23.36;20.98
69247;BME280;56358;56.328;43.992;2023-04-23T09:39:47;100501.09;;;23.42;21.07
69247;BME280;56358;56.328;43.992;2023-04-23T09:41:51;100488.50;;;23.55;21.09
69247;BME280;56358;56.328;43.992;2023-04-23T09:43:53;100499.97;;;23.85;20.26
69247;BME280;56358;56.328;43.992;2023-04-23T09:45:54;100484.06;;;24.09;19.65
69247;BME280;56358;56.328;43.992;2023-04-23T09:47:56;100493.13;;;24.36;19.83
69247;BME280;56358;56.328;43.992;2023-04-23T09:50:00;100490.81;;;24.73;19.51
69247;BME280;56358;56.328;43.992;2023-04-23T09:52:05;100487.00;;;24.81;19.24
69247;BME280;56358;56.328;43.992;2023-04-23T09:54:16;100495.34;;;25.20;18.97
69247;BME280;56358;56.328;43.992;2023-04-23T09:56:19;100489.97;;;25.52;18.36
69247;BME280;56358;56.328;43.992;2023-04-23T09:58:23;100480.19;;;25.69;17.62
69247;BME280;56358;56.328;43.992;2023-04-23T10:00:24;100430.88;;;25.81;17.40
69247;BME280;56358;56.328;43.992;2023-04-23T10:02:28;100475.59;;;26.52;16.86
69247;BME280;56358;56.328;43.992;2023-04-23T10:04:29;100483.31;;;26.62;16.55
69247;BME280;56358;56.328;43.992;2023-04-23T10:06:31;100489.06;;;26.86;16.28
69247;BME280;56358;56.328;43.992;2023-04-23T10:08:33;100487.06;;;26.93;16.09
69247;BME280;56358;56.328;43.992;2023-04-23T10:10:34;100481.88;;;27.03;16.20
69247;BME280;56358;56.328;43.992;2023-04-23T10:12:36;100483.16;;;27.38;16.01
69247;BME280;56358;56.328;43.992;2023-04-23T10:14:37;100448.31;;;26.95;16.09
69247;BME280;56358;56.328;43.992;2023-04-23T10:16:39;100483.25;;;26.94;16.18
69247;BME280;56358;56.328;43.992;2023-04-23T10:18:41;100479.59;;;26.75;16.30
69247;BME280;56358;56.328;43.992;2023-04-23T10:20:42;100479.56;;;27.00;16.24
69247;BME280;56358;56.328;43.992;2023-04-23T10:22:43;100476.25;;;27.29;15.52
69247;BME280;56358;56.328;43.992;2023-04-23T10:24:45;100461.41;;;27.67;15.54
69247;BME280;56358;56.328;43.992;2023-04-23T10:26:51;100469.94;;;27.77;14.85
69247;BME280;56358;56.328;43.992;2023-04-23T10:28:58;100429.25;;;27.49;15.09
69247;BME280;56358;56.328;43.992;2023-04-23T10:31:00;100473.66;;;28.01;15.22